Time;durP1;ratioP1;P1;durP2;ratioP2;P2;SDS_P1;SDS_P2;PMS_P1;PMS_P2;Temp;Humidity;BMP_temperature;BMP_pressure;BME280_temperature;BME280_humidity;BME280_pressure;Samples;Min_cycle;Max_cycle;Signal;HPM_P1;HPM_P2
2024/01/03 00:00:25;;;;;;;1.73;1.63;;;9.00;99.90;;;;;;4960680;28;20208;-64
2024/01/03 00:02:52;;;;;;;1.83;1.73;;;8.90;99.90;;;;;;4959938;28;20214;-66
2024/01/03 00:05:44;;;;;;;1.70;1.60;;;8.90;99.90;;;;;;4954497;28;20217;-68
2024/01/03 00:08:22;;;;;;;2.03;1.90;;;9.00;99.90;;;;;;4953504;28;20222;-63
2024/01/03 00:10:53;;;;;;;1.40;1.40;;;9.00;99.90;;;;;;4958479;28;20225;-66
2024/01/03 00:13:31;;;;;;;2.10;1.50;;;9.00;99.90;;;;;;4956623;28;20212;-64
2024/01/03 00:15:59;;;;;;;1.97;1.30;;;9.00;99.90;;;;;;4939608;28;20202;-54
2024/01/03 00:18:37;;;;;;;2.43;2.07;;;9.00;99.90;;;;;;4962661;28;20212;-54
2024/01/03 00:21:04;;;;;;;2.00;1.90;;;9.00;99.90;;;;;;4941418;28;20208;-54
2024/01/03 00:23:37;;;;;;;1.80;1.70;;;9.00;99.90;;;;;;4958878;28;20209;-54
2024/01/03 00:26:06;;;;;;;1.50;1.40;;;9.00;99.90;;;;;;4957997;28;20210;-54
2024/01/03 00:28:32;;;;;;;1.83;1.73;;;9.00;99.90;;;;;;4965283;28;20205;-54
2024/01/03 00:30:58;;;;;;;2.80;2.47;;;9.00;99.90;;;;;;4959329;28;20205;-54
2024/01/03 00:33:24;;;;;;;1.90;1.57;;;9.10;99.90;;;;;;4960124;28;20213;-55
2024/01/03 00:35:51;;;;;;;2.27;1.60;;;9.00;99.90;;;;;;4946842;28;20189;-63
2024/01/03 00:38:17;;;;;;;3.30;2.10;;;9.00;99.90;;;;;;4955809;28;20691;-54
2024/01/03 00:40:51;;;;;;;1.57;1.47;;;9.00;99.90;;;;;;4954294;28;20193;-56
2024/01/03 00:43:20;;;;;;;1.60;1.50;;;9.10;99.90;;;;;;4954370;28;20769;-57
2024/01/03 00:45:48;;;;;;;1.40;1.33;;;9.10;99.90;;;;;;4954682;28;20586;-57
2024/01/03 00:48:15;;;;;;;1.27;1.17;;;9.10;99.90;;;;;;4945762;28;20202;-57
2024/01/03 00:50:40;;;;;;;1.27;1.27;;;9.10;99.90;;;;;;4958343;28;20284;-55
2024/01/03 00:53:06;;;;;;;0.90;0.90;;;9.20;99.90;;;;;;4957758;28;20285;-63
2024/01/03 00:55:33;;;;;;;1.30;1.27;;;9.20;99.90;;;;;;4959964;28;20213;-59
2024/01/03 00:57:58;;;;;;;1.10;1.03;;;9.20;99.90;;;;;;4957709;28;20220;-64
2024/01/03 01:00:24;;;;;;;1.20;1.20;;;9.20;99.90;;;;;;4952010;28;20206;-66
2024/01/03 01:02:50;;;;;;;1.10;1.00;;;9.20;99.90;;;;;;4951890;28;20204;-64
2024/01/03 01:05:16;;;;;;;2.07;1.00;;;9.20;99.90;;;;;;4956091;28;20205;-55
2024/01/03 01:07:41;;;;;;;2.03;1.13;;;9.20;99.90;;;;;;4934676;28;20205;-54
2024/01/03 01:10:07;;;;;;;1.17;0.97;;;9.20;99.90;;;;;;4956400;28;20350;-54
2024/01/03 01:12:32;;;;;;;1.80;1.10;;;9.20;99.90;;;;;;4956271;28;20263;-57
2024/01/03 01:15:01;;;;;;;2.63;0.90;;;9.30;99.90;;;;;;4957256;28;20485;-60
2024/01/03 01:17:27;;;;;;;1.30;1.30;;;9.30;99.90;;;;;;4953439;28;20289;-64
2024/01/03 01:19:52;;;;;;;1.13;1.13;;;9.30;99.90;;;;;;4936034;28;20208;-63
2024/01/03 01:22:19;;;;;;;1.07;0.97;;;9.30;99.90;;;;;;4959475;28;20215;-63
2024/01/03 01:24:44;;;;;;;1.20;1.10;;;9.20;99.90;;;;;;4955375;28;20195;-64
2024/01/03 01:27:10;;;;;;;0.93;0.93;;;9.20;99.90;;;;;;4959710;28;20220;-61
2024/01/03 01:29:35;;;;;;;1.27;0.77;;;9.20;99.90;;;;;;4960016;28;20670;-64
2024/01/03 01:32:02;;;;;;;2.40;1.03;;;9.20;99.90;;;;;;4955404;28;20201;-62
2024/01/03 01:34:27;;;;;;;0.80;0.80;;;9.20;99.90;;;;;;4955755;28;20221;-64
2024/01/03 01:36:53;;;;;;;0.97;0.53;;;9.30;99.90;;;;;;4938351;28;20239;-57
2024/01/03 01:39:18;;;;;;;1.20;0.57;;;9.30;99.90;;;;;;4956872;28;20236;-57
2024/01/03 01:41:44;;;;;;;0.60;0.60;;;9.40;99.90;;;;;;4941322;28;20279;-59
2024/01/03 01:44:09;;;;;;;0.30;0.30;;;9.30;99.90;;;;;;4958278;28;20647;-62
2024/01/03 01:46:37;;;;;;;2.30;0.53;;;9.30;99.90;;;;;;4952034;28;20270;-55
2024/01/03 01:49:04;;;;;;;0.60;0.60;;;9.20;99.90;;;;;;4987894;23;20663;-55
2024/01/03 01:51:32;;;;;;;0.50;0.50;;;9.30;99.90;;;;;;4968059;23;20242;-55
2024/01/03 01:53:58;;;;;;;0.60;0.60;;;9.20;99.90;;;;;;4961582;28;20240;-55
2024/01/03 01:56:24;;;;;;;0.47;0.47;;;9.20;99.90;;;;;;4955654;28;20217;-55
2024/01/03 01:58:50;;;;;;;0.80;0.80;;;9.20;99.90;;;;;;4956291;28;20719;-55
2024/01/03 02:01:19;;;;;;;1.23;0.50;;;9.20;99.90;;;;;;4956832;28;20217;-55
2024/01/03 02:03:47;;;;;;;0.60;0.60;;;9.10;99.90;;;;;;4959016;28;20291;-56
2024/01/03 02:06:12;;;;;;;0.70;0.70;;;9.10;99.90;;;;;;4953392;28;20229;-62
2024/01/03 02:08:38;;;;;;;0.50;0.50;;;9.10;99.90;;;;;;4956823;28;20696;-63
2024/01/03 02:11:04;;;;;;;0.40;0.40;;;9.10;99.90;;;;;;4956077;28;20527;-56
2024/01/03 02:13:30;;;;;;;1.10;0.50;;;9.10;99.90;;;;;;4959582;28;20248;-55
2024/01/03 02:15:56;;;;;;;0.87;0.57;;;9.10;99.90;;;;;;4955556;28;20236;-59
2024/01/03 02:18:23;;;;;;;1.47;0.67;;;9.10;99.90;;;;;;4958312;28;20254;-57
2024/01/03 02:20:50;;;;;;;0.40;0.40;;;9.10;99.90;;;;;;4955111;28;20202;-56
2024/01/03 02:23:15;;;;;;;1.30;0.40;;;9.20;99.90;;;;;;4957218;28;20563;-55
2024/01/03 02:25:41;;;;;;;1.13;0.60;;;9.20;99.90;;;;;;4950896;28;20201;-56
2024/01/03 02:28:10;;;;;;;0.43;0.43;;;9.30;99.90;;;;;;4953032;28;20694;-55
2024/01/03 02:30:36;;;;;;;0.37;0.37;;;9.30;99.90;;;;;;4958524;28;20192;-54
2024/01/03 02:33:02;;;;;;;0.40;0.40;;;9.30;99.90;;;;;;4938974;28;20201;-54
2024/01/03 02:35:27;;;;;;;0.53;0.53;;;9.30;99.90;;;;;;4958338;28;20634;-55
2024/01/03 02:37:53;;;;;;;1.00;0.50;;;9.30;99.90;;;;;;4957208;28;20197;-54
2024/01/03 02:40:18;;;;;;;0.63;0.60;;;9.30;99.90;;;;;;4941117;28;20457;-55
2024/01/03 02:42:44;;;;;;;1.33;0.60;;;9.30;99.90;;;;;;4938430;28;20256;-55
2024/01/03 02:45:09;;;;;;;0.43;0.43;;;9.40;99.90;;;;;;4958626;28;20296;-55
2024/01/03 02:47:35;;;;;;;0.63;0.40;;;9.50;99.90;;;;;;4955495;28;20201;-55
2024/01/03 02:50:01;;;;;;;0.50;0.50;;;9.50;99.90;;;;;;4939058;28;20258;-56
2024/01/03 02:52:27;;;;;;;0.40;0.40;;;9.50;99.90;;;;;;4954403;28;20226;-54
2024/01/03 02:54:53;;;;;;;0.40;0.40;;;9.50;99.90;;;;;;4954434;28;20210;-54
2024/01/03 02:57:18;;;;;;;0.67;0.40;;;9.50;99.90;;;;;;4956625;28;20226;-57
2024/01/03 02:59:44;;;;;;;0.50;0.50;;;9.60;99.90;;;;;;4939304;28;20269;-54
2024/01/03 03:02:09;;;;;;;1.60;0.40;;;9.60;99.90;;;;;;4957096;28;20209;-51
2024/01/03 03:04:35;;;;;;;0.10;0.10;;;9.60;99.90;;;;;;4956876;28;20267;-52
2024/01/03 03:07:01;;;;;;;0.20;0.20;;;9.60;99.90;;;;;;4955147;28;20213;-50
2024/01/03 03:09:26;;;;;;;0.20;0.20;;;9.70;99.90;;;;;;4956353;28;20216;-51
2024/01/03 03:11:52;;;;;;;1.23;0.53;;;9.60;99.90;;;;;;4942114;28;20197;-50
2024/01/03 03:14:17;;;;;;;0.30;0.30;;;9.60;99.90;;;;;;4951136;28;23051;-52
2024/01/03 03:16:43;;;;;;;1.70;0.60;;;9.70;99.90;;;;;;4938943;28;20207;-50
2024/01/03 03:19:08;;;;;;;0.80;0.60;;;9.70;99.90;;;;;;4956058;28;20558;-50
2024/01/03 03:21:34;;;;;;;0.47;0.40;;;9.70;99.90;;;;;;4941086;28;20219;-52
2024/01/03 03:24:01;;;;;;;0.30;0.30;;;9.70;99.90;;;;;;4954799;28;20200;-51
2024/01/03 03:26:26;;;;;;;0.20;0.20;;;9.70;99.90;;;;;;4954776;28;20197;-54
2024/01/03 03:28:51;;;;;;;1.70;0.50;;;9.70;99.90;;;;;;4955050;28;20213;-50
2024/01/03 03:31:17;;;;;;;0.30;0.30;;;9.60;99.90;;;;;;4953863;28;20647;-52
2024/01/03 03:33:42;;;;;;;0.50;0.40;;;9.60;99.90;;;;;;4938256;28;20208;-51
2024/01/03 03:36:15;;;;;;;1.00;0.47;;;9.60;99.90;;;;;;4958162;28;20209;-51
2024/01/03 03:38:41;;;;;;;1.50;0.30;;;9.60;99.90;;;;;;4954605;28;20982;-49
2024/01/03 03:41:11;;;;;;;1.37;0.40;;;9.60;99.90;;;;;;4956960;28;20233;-51
2024/01/03 03:43:37;;;;;;;1.07;0.40;;;9.60;99.90;;;;;;4957580;28;20933;-51
2024/01/03 03:46:03;;;;;;;0.50;0.50;;;9.60;99.90;;;;;;4956951;28;20709;-50
2024/01/03 03:48:28;;;;;;;0.63;0.20;;;9.60;99.90;;;;;;4959575;28;20201;-51
2024/01/03 03:50:54;;;;;;;1.30;1.03;;;9.60;99.90;;;;;;4956032;28;20227;-50
2024/01/03 03:53:19;;;;;;;0.93;0.33;;;9.60;99.90;;;;;;4961019;28;20296;-51
2024/01/03 03:55:45;;;;;;;1.00;0.50;;;9.60;99.90;;;;;;4959022;28;20223;-50
2024/01/03 03:58:10;;;;;;;0.40;0.40;;;9.60;99.90;;;;;;4957605;28;20221;-51
2024/01/03 04:00:36;;;;;;;0.30;0.30;;;9.50;99.90;;;;;;4962658;28;20205;-50
2024/01/03 04:03:06;;;;;;;0.60;0.60;;;9.50;99.90;;;;;;4957053;28;20210;-54
2024/01/03 04:05:33;;;;;;;0.23;0.23;;;9.40;99.90;;;;;;4957213;28;20232;-51
2024/01/03 04:07:58;;;;;;;1.60;0.33;;;9.50;99.90;;;;;;4952616;28;20208;-56
2024/01/03 04:10:24;;;;;;;1.37;0.73;;;9.50;99.90;;;;;;4962144;28;20205;-49
2024/01/03 04:12:49;;;;;;;0.33;0.33;;;9.50;99.90;;;;;;4965942;28;20705;-50
2024/01/03 04:15:15;;;;;;;0.60;0.30;;;9.50;99.90;;;;;;4957037;28;20611;-50
2024/01/03 04:17:41;;;;;;;0.30;0.30;;;9.40;99.90;;;;;;4958990;28;20275;-51
2024/01/03 04:20:07;;;;;;;3.17;0.53;;;9.40;99.90;;;;;;4956648;28;20307;-55
2024/01/03 04:22:33;;;;;;;1.60;0.40;;;9.40;99.90;;;;;;4959281;28;20209;-50
2024/01/03 04:24:58;;;;;;;0.70;0.70;;;9.40;99.90;;;;;;4960847;28;20334;-50
2024/01/03 04:27:25;;;;;;;0.83;0.40;;;9.40;99.90;;;;;;4957597;28;20229;-50
2024/01/03 04:29:50;;;;;;;0.60;0.50;;;9.40;99.90;;;;;;4942227;28;20343;-50
2024/01/03 04:32:16;;;;;;;0.50;0.50;;;9.50;99.90;;;;;;4962426;28;20581;-50
2024/01/03 04:34:41;;;;;;;1.17;0.50;;;9.50;99.90;;;;;;4956177;28;20252;-50
2024/01/03 04:37:07;;;;;;;1.23;0.63;;;9.50;99.90;;;;;;4960627;28;20569;-49
2024/01/03 04:39:32;;;;;;;1.07;0.63;;;9.50;99.90;;;;;;4958249;28;20206;-49
2024/01/03 04:41:58;;;;;;;0.70;0.40;;;9.50;99.90;;;;;;4958393;28;20197;-50
2024/01/03 04:44:24;;;;;;;0.90;0.50;;;9.60;99.90;;;;;;4959919;28;20198;-50
2024/01/03 04:46:49;;;;;;;1.60;0.50;;;9.60;99.90;;;;;;4957088;28;20217;-50
2024/01/03 04:49:15;;;;;;;0.87;0.30;;;9.60;99.90;;;;;;4944697;28;20210;-50
2024/01/03 04:51:40;;;;;;;1.60;0.53;;;9.60;99.90;;;;;;4953491;28;20225;-50
2024/01/03 04:54:07;;;;;;;1.00;0.60;;;9.60;99.90;;;;;;4957270;28;20699;-50
2024/01/03 04:56:33;;;;;;;0.40;0.40;;;9.60;99.90;;;;;;4960344;28;20227;-50
2024/01/03 04:59:00;;;;;;;1.27;0.60;;;9.60;99.90;;;;;;4937963;28;20232;-53
2024/01/03 05:01:25;;;;;;;2.23;0.70;;;9.60;99.90;;;;;;4959782;28;20254;-51
2024/01/03 05:03:51;;;;;;;0.60;0.60;;;9.70;99.90;;;;;;4940830;28;20209;-50
2024/01/03 05:06:17;;;;;;;0.50;0.50;;;9.60;99.90;;;;;;4960113;28;20197;-50
2024/01/03 05:08:42;;;;;;;1.57;0.77;;;9.70;99.90;;;;;;4940881;28;21018;-51
2024/01/03 05:11:09;;;;;;;0.63;0.40;;;9.60;99.90;;;;;;4952700;28;20217;-51
2024/01/03 05:13:35;;;;;;;2.00;0.83;;;9.60;99.90;;;;;;4959543;28;20231;-51
2024/01/03 05:16:01;;;;;;;1.30;1.03;;;9.70;99.90;;;;;;4956775;28;20651;-51
2024/01/03 05:18:27;;;;;;;1.33;0.40;;;9.70;99.90;;;;;;4957701;28;20887;-51
2024/01/03 05:20:53;;;;;;;5.97;0.60;;;9.70;99.90;;;;;;4961176;28;20625;-51
2024/01/03 05:23:19;;;;;;;0.97;0.50;;;9.70;99.90;;;;;;4957417;28;20292;-50
2024/01/03 05:25:44;;;;;;;1.10;0.90;;;9.80;99.90;;;;;;4956144;28;20332;-51
2024/01/03 05:28:10;;;;;;;1.20;0.83;;;9.80;99.90;;;;;;4959817;28;20227;-51
2024/01/03 05:30:35;;;;;;;2.07;0.87;;;9.80;99.90;;;;;;4958794;28;20210;-50
2024/01/03 05:33:01;;;;;;;7.83;1.23;;;9.80;99.90;;;;;;4939761;28;20286;-51
2024/01/03 05:35:26;;;;;;;3.60;0.80;;;9.80;99.90;;;;;;4960975;28;21157;-50
2024/01/03 05:37:52;;;;;;;1.50;0.60;;;9.80;99.90;;;;;;4955426;28;20201;-51
2024/01/03 05:40:20;;;;;;;2.07;0.80;;;9.80;99.90;;;;;;4955529;28;20866;-51
2024/01/03 05:42:46;;;;;;;1.27;0.90;;;9.90;99.90;;;;;;4955406;28;20206;-51
2024/01/03 05:45:11;;;;;;;2.23;0.93;;;9.90;99.90;;;;;;4952234;28;20201;-51
2024/01/03 05:47:37;;;;;;;2.80;1.17;;;9.90;99.90;;;;;;4938015;28;20201;-51
2024/01/03 05:50:03;;;;;;;1.77;1.00;;;9.90;99.90;;;;;;4952016;28;21216;-52
2024/01/03 05:52:29;;;;;;;1.60;0.60;;;9.90;99.90;;;;;;4954569;28;20232;-51
2024/01/03 05:54:54;;;;;;;3.40;0.73;;;9.90;99.90;;;;;;4953400;28;20221;-51
2024/01/03 05:57:22;;;;;;;0.80;0.80;;;9.80;99.90;;;;;;4959375;28;20558;-51
2024/01/03 05:59:48;;;;;;;0.70;0.70;;;9.80;99.90;;;;;;4955115;28;20210;-51
2024/01/03 06:02:13;;;;;;;0.30;0.30;;;9.80;99.90;;;;;;4956659;28;20260;-51
2024/01/03 06:04:39;;;;;;;2.47;0.63;;;9.80;99.90;;;;;;4957668;28;20211;-51
2024/01/03 06:07:04;;;;;;;2.63;0.60;;;9.80;99.90;;;;;;4955120;28;20202;-50
2024/01/03 06:09:30;;;;;;;2.53;0.63;;;9.90;99.90;;;;;;4957068;28;20276;-50
2024/01/03 06:11:56;;;;;;;0.77;0.77;;;9.80;99.90;;;;;;4940173;28;20209;-51
2024/01/03 06:14:21;;;;;;;1.73;1.03;;;9.90;99.90;;;;;;4957608;28;20271;-51
2024/01/03 06:16:47;;;;;;;4.07;1.17;;;9.90;99.90;;;;;;4957557;28;20213;-50
2024/01/03 06:19:12;;;;;;;1.30;0.60;;;9.90;99.90;;;;;;4959040;28;20285;-51
2024/01/03 06:21:38;;;;;;;1.90;0.70;;;9.90;99.90;;;;;;4954640;28;21019;-51
2024/01/03 06:24:04;;;;;;;0.80;0.57;;;9.90;99.90;;;;;;4956411;28;20714;-51
2024/01/03 06:26:30;;;;;;;2.87;0.87;;;9.90;99.90;;;;;;4938100;28;20204;-51
2024/01/03 06:28:56;;;;;;;3.03;0.70;;;9.90;99.90;;;;;;4955527;28;20207;-51
2024/01/03 06:31:22;;;;;;;1.67;0.70;;;9.90;99.90;;;;;;4942830;28;20200;-51
2024/01/03 06:33:48;;;;;;;2.63;0.70;;;9.90;99.90;;;;;;4957912;28;20206;-52
2024/01/03 06:36:14;;;;;;;2.40;0.90;;;9.90;99.90;;;;;;4956952;28;20213;-51
2024/01/03 06:38:39;;;;;;;1.40;0.87;;;9.90;99.90;;;;;;4952781;28;20570;-51
2024/01/03 06:41:07;;;;;;;2.70;1.00;;;9.90;99.90;;;;;;4954660;28;20252;-51
2024/01/03 06:43:32;;;;;;;2.10;0.80;;;9.90;99.90;;;;;;4937681;28;21016;-51
2024/01/03 06:45:58;;;;;;;0.63;0.60;;;9.90;99.90;;;;;;4955862;28;20198;-51
2024/01/03 06:48:24;;;;;;;3.27;1.13;;;9.90;99.90;;;;;;4956190;28;20196;-51
2024/01/03 06:50:50;;;;;;;6.27;1.00;;;9.90;99.90;;;;;;4956425;28;20750;-51
2024/01/03 06:53:16;;;;;;;0.53;0.53;;;9.90;99.90;;;;;;4959021;28;20217;-60
2024/01/03 06:55:41;;;;;;;3.30;0.90;;;9.90;99.90;;;;;;4937136;28;20221;-61
2024/01/03 06:58:07;;;;;;;3.13;0.77;;;9.90;99.90;;;;;;4937295;28;20608;-50
2024/01/03 07:00:32;;;;;;;2.67;0.80;;;9.90;99.90;;;;;;4940288;28;20272;-50
2024/01/03 07:02:58;;;;;;;2.80;0.70;;;9.80;99.90;;;;;;4955130;28;20213;-51
2024/01/03 07:05:24;;;;;;;3.47;0.77;;;9.80;99.90;;;;;;4952736;28;20683;-50
2024/01/03 07:07:49;;;;;;;2.33;0.97;;;9.80;99.90;;;;;;4952449;28;20270;-52
2024/01/03 07:10:15;;;;;;;1.27;0.40;;;9.80;99.90;;;;;;4957427;28;20258;-52
2024/01/03 07:12:40;;;;;;;2.80;0.90;;;9.80;99.90;;;;;;4955133;28;20241;-49
2024/01/03 07:15:06;;;;;;;4.80;0.77;;;9.80;99.90;;;;;;4957989;28;20220;-49
2024/01/03 07:17:32;;;;;;;0.63;0.57;;;9.80;99.90;;;;;;4939270;28;20209;-51
2024/01/03 07:19:57;;;;;;;3.40;0.77;;;9.80;99.90;;;;;;4954629;28;20543;-51
2024/01/03 07:22:23;;;;;;;3.97;1.00;;;9.90;99.90;;;;;;4959384;28;20221;-52
2024/01/03 07:24:49;;;;;;;1.73;0.60;;;9.90;99.90;;;;;;4963024;28;20205;-50
2024/01/03 07:27:15;;;;;;;0.83;0.70;;;9.90;99.90;;;;;;4955084;28;20285;-50
2024/01/03 07:29:41;;;;;;;2.47;1.07;;;9.80;99.90;;;;;;4953521;28;20194;-51
2024/01/03 07:32:07;;;;;;;1.53;1.10;;;9.80;99.90;;;;;;4939665;28;20945;-50
2024/01/03 07:34:33;;;;;;;7.10;0.97;;;9.80;99.90;;;;;;4958574;28;20218;-50
2024/01/03 07:36:59;;;;;;;2.87;1.37;;;9.80;99.90;;;;;;4959766;28;20277;-50
2024/01/03 07:39:24;;;;;;;4.03;1.10;;;9.90;99.90;;;;;;4957682;28;20257;-53
2024/01/03 07:41:51;;;;;;;1.87;1.00;;;9.90;99.90;;;;;;4959378;28;20205;-49
2024/01/03 07:44:16;;;;;;;3.07;0.90;;;9.80;99.90;;;;;;4943518;28;20210;-50
2024/01/03 07:46:42;;;;;;;0.47;0.47;;;9.80;99.90;;;;;;4961014;28;20283;-50
2024/01/03 07:49:07;;;;;;;2.07;0.77;;;9.90;99.90;;;;;;4955000;28;20652;-51
2024/01/03 07:51:38;;;;;;;0.67;0.50;;;9.90;99.90;;;;;;4934659;28;20272;-58
2024/01/03 07:54:04;;;;;;;0.80;0.80;;;9.90;99.90;;;;;;4954593;28;20213;-56
2024/01/03 07:56:30;;;;;;;0.43;0.40;;;9.90;99.90;;;;;;4961768;28;20621;-57
2024/01/03 07:58:56;;;;;;;0.47;0.40;;;10.00;99.90;;;;;;4957827;28;20916;-60
2024/01/03 08:01:21;;;;;;;3.20;1.17;;;10.00;99.90;;;;;;4945027;28;20543;-55
2024/01/03 08:03:47;;;;;;;2.17;0.90;;;10.00;99.90;;;;;;4961209;28;20288;-55
2024/01/03 08:06:20;;;;;;;1.03;0.60;;;10.00;99.90;;;;;;4959489;28;20686;-56
2024/01/03 08:08:45;;;;;;;3.20;0.90;;;10.10;99.90;;;;;;4935422;28;20572;-53
2024/01/03 08:11:11;;;;;;;1.00;0.90;;;10.10;99.90;;;;;;4957506;28;20217;-54
2024/01/03 08:13:37;;;;;;;0.83;0.60;;;10.20;99.90;;;;;;4940375;28;20252;-56
2024/01/03 08:16:04;;;;;;;1.13;0.70;;;10.20;99.90;;;;;;4958890;28;20209;-55
2024/01/03 08:18:29;;;;;;;0.77;0.77;;;10.20;99.90;;;;;;4953209;28;20210;-54
2024/01/03 08:20:55;;;;;;;2.63;0.73;;;10.10;99.90;;;;;;4956357;28;20675;-56
2024/01/03 08:23:20;;;;;;;2.67;1.03;;;10.20;99.90;;;;;;4958748;28;20300;-61
2024/01/03 08:25:46;;;;;;;0.93;0.67;;;10.20;99.90;;;;;;4936231;28;20879;-53
2024/01/03 08:28:12;;;;;;;1.50;0.57;;;10.20;99.90;;;;;;4958991;28;20210;-54
2024/01/03 08:30:37;;;;;;;3.27;0.57;;;10.20;99.90;;;;;;4958523;28;20201;-54
2024/01/03 08:33:03;;;;;;;2.00;0.87;;;10.20;99.90;;;;;;4960791;28;20204;-54
2024/01/03 08:35:28;;;;;;;1.10;0.47;;;10.20;99.90;;;;;;4957534;28;20568;-54
2024/01/03 08:37:54;;;;;;;1.47;0.57;;;10.30;99.90;;;;;;4959751;28;20721;-54
2024/01/03 08:40:21;;;;;;;1.33;0.50;;;10.30;99.90;;;;;;4944432;28;20693;-54
2024/01/03 08:42:46;;;;;;;1.83;1.20;;;10.30;99.90;;;;;;4956902;28;20288;-55
2024/01/03 08:45:12;;;;;;;0.80;0.70;;;10.20;99.90;;;;;;4960266;28;20304;-56
2024/01/03 08:47:37;;;;;;;0.70;0.70;;;10.20;99.90;;;;;;4957130;28;20298;-58
2024/01/03 08:50:03;;;;;;;1.97;0.70;;;10.20;99.90;;;;;;4958678;28;20212;-56
2024/01/03 08:52:28;;;;;;;2.47;0.97;;;10.30;99.90;;;;;;4960523;28;20757;-58
2024/01/03 08:54:54;;;;;;;4.20;1.03;;;10.30;99.90;;;;;;4942696;28;20213;-54
2024/01/03 08:57:19;;;;;;;2.80;0.90;;;10.30;99.90;;;;;;4961682;28;20197;-64
2024/01/03 08:59:45;;;;;;;0.97;0.60;;;10.30;99.90;;;;;;4958869;28;20667;-55
2024/01/03 09:02:10;;;;;;;0.97;0.67;;;10.30;99.90;;;;;;4957136;28;20590;-62
2024/01/03 09:04:36;;;;;;;2.63;0.63;;;10.30;99.90;;;;;;4960148;28;20197;-54
2024/01/03 09:07:02;;;;;;;1.20;0.63;;;10.40;99.90;;;;;;4956172;28;20202;-55
2024/01/03 09:09:28;;;;;;;2.03;0.60;;;10.40;99.90;;;;;;4960740;28;20197;-55
2024/01/03 09:11:55;;;;;;;1.10;0.67;;;10.40;99.90;;;;;;4957310;28;20208;-55
2024/01/03 09:14:20;;;;;;;2.27;0.67;;;10.40;99.90;;;;;;4956180;28;20275;-55
2024/01/03 09:16:46;;;;;;;1.00;0.60;;;10.40;99.90;;;;;;4960167;28;20197;-64
2024/01/03 09:19:11;;;;;;;1.50;0.63;;;10.40;99.90;;;;;;4942273;28;20558;-62
2024/01/03 09:21:44;;;;;;;1.03;0.60;;;10.40;99.90;;;;;;4955998;28;20232;-60
2024/01/03 09:24:09;;;;;;;0.87;0.60;;;10.50;99.90;;;;;;4938891;28;20667;-55
2024/01/03 09:26:35;;;;;;;1.63;0.70;;;10.50;99.90;;;;;;4958615;28;20212;-55
2024/01/03 09:29:00;;;;;;;1.27;0.80;;;10.60;99.90;;;;;;4957627;28;20231;-56
2024/01/03 09:31:26;;;;;;;1.90;0.60;;;10.60;99.90;;;;;;4955554;28;20238;-57
2024/01/03 09:33:52;;;;;;;1.10;0.77;;;10.70;99.90;;;;;;4955928;28;20566;-54
2024/01/03 09:36:21;;;;;;;7.13;0.97;;;10.70;99.90;;;;;;4961051;28;20237;-56
2024/01/03 09:38:47;;;;;;;0.80;0.80;;;10.80;99.90;;;;;;4954467;28;20200;-53
2024/01/03 09:41:13;;;;;;;2.33;0.87;;;10.90;99.90;;;;;;4956240;28;20205;-54
2024/01/03 09:43:42;;;;;;;3.70;0.70;;;11.00;99.90;;;;;;4955704;28;20702;-54
2024/01/03 09:46:11;;;;;;;2.97;1.27;;;11.00;99.90;;;;;;4956807;28;20685;-54
2024/01/03 09:48:41;;;;;;;3.43;1.00;;;11.00;99.90;;;;;;4950889;28;20209;-54
2024/01/03 09:51:08;;;;;;;1.50;1.50;;;11.10;99.90;;;;;;4959912;28;20226;-57
2024/01/03 09:53:34;;;;;;;5.33;0.93;;;11.10;99.90;;;;;;4942312;28;20218;-54
2024/01/03 09:56:00;;;;;;;1.40;0.47;;;11.10;99.90;;;;;;4955444;28;20221;-53
2024/01/03 09:58:27;;;;;;;2.57;0.87;;;11.10;99.90;;;;;;4960095;28;20205;-56
2024/01/03 10:00:53;;;;;;;2.03;0.80;;;11.00;99.90;;;;;;4961349;28;20856;-53
2024/01/03 10:03:18;;;;;;;3.37;1.30;;;11.10;99.90;;;;;;4960491;28;21027;-53
2024/01/03 10:05:44;;;;;;;1.30;0.63;;;11.00;99.90;;;;;;4960741;28;20202;-64
2024/01/03 10:08:17;;;;;;;1.73;0.70;;;11.10;99.90;;;;;;4961562;28;20945;-65
2024/01/03 10:10:45;;;;;;;0.90;0.67;;;11.10;99.90;;;;;;4961863;28;20627;-61
2024/01/03 10:13:24;;;;;;;2.50;0.80;;;11.00;99.90;;;;;;4956309;28;20566;-61
2024/01/03 10:15:49;;;;;;;1.87;0.80;;;11.00;99.90;;;;;;4959224;28;20221;-57
2024/01/03 10:18:16;;;;;;;2.07;1.30;;;11.10;99.90;;;;;;4956496;28;20700;-71
2024/01/03 10:20:42;;;;;;;1.33;0.93;;;11.20;99.90;;;;;;4941729;28;20198;-66
2024/01/03 10:23:11;;;;;;;2.07;0.77;;;11.20;99.90;;;;;;4939777;28;20558;-71
2024/01/03 10:25:38;;;;;;;1.23;0.93;;;11.20;99.90;;;;;;4942427;28;20212;-63
2024/01/03 10:28:06;;;;;;;1.57;0.63;;;11.30;99.90;;;;;;4941341;28;20233;-62
2024/01/03 10:30:31;;;;;;;1.67;0.90;;;11.40;99.90;;;;;;4961353;28;20211;-55
2024/01/03 10:32:58;;;;;;;3.40;1.33;;;11.50;99.90;;;;;;4959270;28;20206;-56
2024/01/03 10:35:29;;;;;;;2.63;0.73;;;11.50;99.90;;;;;;4960400;28;20309;-54
2024/01/03 10:37:55;;;;;;;3.70;1.10;;;11.50;99.90;;;;;;4960020;28;20195;-56
2024/01/03 10:40:23;;;;;;;2.10;0.50;;;11.40;99.90;;;;;;4962751;28;20218;-54
2024/01/03 10:42:51;;;;;;;0.73;0.60;;;11.40;99.90;;;;;;4950967;28;20206;-62
2024/01/03 10:45:17;;;;;;;2.87;1.20;;;11.40;99.90;;;;;;4942662;28;20264;-55
2024/01/03 10:47:43;;;;;;;4.27;0.73;;;11.40;99.90;;;;;;4954107;28;20318;-54
2024/01/03 10:50:10;;;;;;;0.90;0.63;;;11.50;99.90;;;;;;4957947;28;20192;-55
2024/01/03 10:52:37;;;;;;;2.00;0.80;;;11.50;99.90;;;;;;4957328;28;20217;-55
2024/01/03 10:55:05;;;;;;;2.27;0.70;;;11.50;99.90;;;;;;4939145;28;20272;-55
2024/01/03 10:57:34;;;;;;;1.70;1.00;;;11.40;99.90;;;;;;4956275;28;20222;-55
2024/01/03 11:00:12;;;;;;;1.90;1.10;;;11.40;99.90;;;;;;4960440;28;20305;-53
2024/01/03 11:02:46;;;;;;;2.43;0.87;;;11.40;99.90;;;;;;4932275;28;20228;-56
2024/01/03 11:05:22;;;;;;;4.63;1.00;;;11.50;99.90;;;;;;4956610;28;20228;-54
2024/01/03 11:07:54;;;;;;;1.73;0.60;;;11.40;99.90;;;;;;4955185;28;20212;-54
2024/01/03 11:10:53;;;;;;;4.57;0.90;;;11.50;99.90;;;;;;4951257;28;20965;-54
2024/01/03 11:13:30;;;;;;;2.77;0.83;;;11.50;99.90;;;;;;4953854;28;21055;-54
2024/01/03 11:16:00;;;;;;;1.90;0.80;;;11.50;99.90;;;;;;4951703;28;20222;-55
2024/01/03 11:18:41;;;;;;;1.50;0.53;;;11.40;99.90;;;;;;4956663;28;20202;-54
2024/01/03 11:21:26;;;;;;;1.97;0.90;;;11.50;99.90;;;;;;4955311;28;20263;-55
2024/01/03 11:23:53;;;;;;;2.93;1.07;;;11.60;99.90;;;;;;4954750;28;20200;-54
2024/01/03 11:26:19;;;;;;;1.03;0.73;;;11.50;99.90;;;;;;4956990;28;20210;-58
2024/01/03 11:28:50;;;;;;;4.80;1.17;;;11.50;99.90;;;;;;4959428;28;20202;-56
2024/01/03 11:31:55;;;;;;;1.10;0.60;;;11.40;99.90;;;;;;4958713;28;20197;-55
2024/01/03 11:34:46;;;;;;;1.33;0.60;;;11.30;99.90;;;;;;4956104;28;20245;-54
2024/01/03 11:37:12;;;;;;;2.50;0.70;;;11.20;99.90;;;;;;4958331;28;20206;-54
2024/01/03 11:39:50;;;;;;;1.03;0.47;;;11.30;99.90;;;;;;4955124;28;20210;-54
2024/01/03 11:42:29;;;;;;;1.53;0.90;;;11.30;99.90;;;;;;4956729;28;20208;-53
2024/01/03 11:45:12;;;;;;;2.63;0.87;;;11.30;99.90;;;;;;4959548;28;21007;-54
2024/01/03 11:47:42;;;;;;;2.57;0.70;;;11.40;99.90;;;;;;4957395;28;20274;-55
2024/01/03 11:50:12;;;;;;;3.47;0.77;;;11.40;99.90;;;;;;4953818;28;20211;-60
2024/01/03 11:52:39;;;;;;;2.77;0.77;;;11.40;99.90;;;;;;4949664;28;20589;-55
2024/01/03 11:55:12;;;;;;;6.23;2.13;;;11.50;99.90;;;;;;4957252;28;20210;-53
2024/01/03 11:57:43;;;;;;;1.43;0.70;;;11.60;99.90;;;;;;4954547;28;20555;-55
2024/01/03 12:00:15;;;;;;;4.57;1.30;;;11.50;99.90;;;;;;4950556;28;20212;-53
2024/01/03 12:02:53;;;;;;;3.00;1.10;;;11.50;99.90;;;;;;4937973;28;20890;-54
2024/01/03 12:05:20;;;;;;;3.23;0.80;;;11.40;99.90;;;;;;4953613;28;20289;-54
2024/01/03 12:07:47;;;;;;;3.03;0.97;;;11.40;99.90;;;;;;4955230;28;20209;-54
2024/01/03 12:10:13;;;;;;;4.80;0.97;;;11.40;99.90;;;;;;4958457;28;20210;-63
2024/01/03 12:12:39;;;;;;;4.17;0.93;;;11.40;99.90;;;;;;4956850;28;20829;-54
2024/01/03 12:15:05;;;;;;;3.33;1.23;;;11.30;99.90;;;;;;4962225;28;20258;-53
2024/01/03 12:17:32;;;;;;;2.33;0.97;;;11.30;99.90;;;;;;4956429;28;20238;-54
2024/01/03 12:20:11;;;;;;;3.80;1.90;;;11.30;99.90;;;;;;4939940;28;20621;-54
2024/01/03 12:22:36;;;;;;;4.37;1.07;;;11.30;99.90;;;;;;4961066;28;20195;-54
2024/01/03 12:25:02;;;;;;;3.80;1.13;;;11.30;99.90;;;;;;4945760;28;20253;-54
2024/01/03 12:27:30;;;;;;;1.67;0.70;;;11.40;99.90;;;;;;4957218;28;20639;-54
2024/01/03 12:30:11;;;;;;;3.10;1.00;;;11.40;99.90;;;;;;4958763;28;20237;-56
2024/01/03 12:32:36;;;;;;;1.83;1.20;;;11.30;99.90;;;;;;4961413;28;20282;-64
2024/01/03 12:35:02;;;;;;;4.27;1.33;;;11.30;99.90;;;;;;4943791;28;20339;-54
2024/01/03 12:37:28;;;;;;;3.77;1.37;;;11.20;99.90;;;;;;4959228;28;20244;-62
2024/01/03 12:39:54;;;;;;;4.37;1.40;;;11.20;99.90;;;;;;4942400;28;20199;-62
2024/01/03 12:42:19;;;;;;;4.27;0.87;;;11.20;99.90;;;;;;4954559;28;20243;-61
2024/01/03 12:44:45;;;;;;;3.33;1.37;;;11.20;99.90;;;;;;4954956;28;20267;-63
2024/01/03 12:47:11;;;;;;;2.37;1.17;;;11.30;99.90;;;;;;4959894;28;20799;-53
2024/01/03 12:49:40;;;;;;;4.13;1.63;;;11.20;99.90;;;;;;4953707;28;20935;-52
2024/01/03 12:52:09;;;;;;;5.23;1.90;;;11.20;99.90;;;;;;4956759;28;20660;-52